createdAt,value
2023-04-23T00:02:09.331Z,12.60
2023-04-23T00:04:38.246Z,12.60
2023-04-23T00:07:05.343Z,12.60
2023-04-23T00:09:34.946Z,12.40
2023-04-23T00:12:02.307Z,12.20
2023-04-23T00:14:29.380Z,12.40
2023-04-23T00:16:56.431Z,12.40
2023-04-23T00:19:23.130Z,12.20
2023-04-23T00:21:49.841Z,12.30
2023-04-23T00:24:16.496Z,12.40
2023-04-23T00:26:43.277Z,12.50
2023-04-23T00:29:09.950Z,12.40
2023-04-23T00:31:36.667Z,12.40
2023-04-23T00:34:03.535Z,12.40
2023-04-23T00:36:30.316Z,12.40
2023-04-23T00:38:56.999Z,12.50
2023-04-23T00:41:23.804Z,12.60
2023-04-23T00:43:53.095Z,12.60
2023-04-23T00:46:20.729Z,12.70
2023-04-23T00:48:48.382Z,12.70
2023-04-23T00:51:17.440Z,12.70
2023-04-23T00:53:44.307Z,12.60
2023-04-23T00:56:11.446Z,12.60
2023-04-23T00:58:38.405Z,12.60
2023-04-23T01:01:05.749Z,12.60
2023-04-23T01:03:36.335Z,12.40
2023-04-23T01:06:04.114Z,12.50
2023-04-23T01:08:31.991Z,12.50
2023-04-23T01:10:59.617Z,12.30
2023-04-23T01:13:29.516Z,12.30
2023-04-23T01:15:57.356Z,12.20
2023-04-23T01:18:24.387Z,12.30
2023-04-23T01:20:51.521Z,12.30
2023-04-23T01:23:18.562Z,12.30
2023-04-23T01:25:46.269Z,12.40
2023-04-23T01:28:13.104Z,12.30
2023-04-23T01:30:42.678Z,12.10
2023-04-23T01:33:10.490Z,12.20
2023-04-23T01:35:37.671Z,12.30
2023-04-23T01:38:04.997Z,12.40
2023-04-23T01:40:31.674Z,12.40
2023-04-23T01:42:58.959Z,12.50
2023-04-23T01:45:25.900Z,12.50
2023-04-23T01:47:53.050Z,12.50
2023-04-23T01:50:23.128Z,12.50
2023-04-23T01:52:50.000Z,12.40
2023-04-23T01:55:19.037Z,12.40
2023-04-23T01:57:46.939Z,12.50
2023-04-23T02:00:15.614Z,12.50
2023-04-23T02:02:44.077Z,12.50
2023-04-23T02:05:13.715Z,12.50
2023-04-23T02:07:40.700Z,12.50
2023-04-23T02:10:08.285Z,12.50
2023-04-23T02:12:35.910Z,12.40
2023-04-23T02:15:02.702Z,12.40
2023-04-23T02:17:29.958Z,12.40
2023-04-23T02:19:56.777Z,12.40
2023-04-23T02:22:26.396Z,12.40
2023-04-23T02:24:53.392Z,12.30
2023-04-23T02:27:21.251Z,12.30
2023-04-23T02:29:48.784Z,12.30
2023-04-23T02:32:15.772Z,12.40
2023-04-23T02:34:42.656Z,12.30
2023-04-23T02:37:09.746Z,12.30
2023-04-23T02:39:38.785Z,12.30
2023-04-23T02:42:05.616Z,12.30
2023-04-23T02:44:32.292Z,12.30
2023-04-23T02:46:59.050Z,12.30
2023-04-23T02:49:26.112Z,12.30
2023-04-23T02:51:52.871Z,12.30
2023-04-23T02:54:19.608Z,12.30
2023-04-23T02:56:46.378Z,12.30
2023-04-23T02:59:13.268Z,12.30
2023-04-23T03:01:39.977Z,12.30
2023-04-23T03:04:09.220Z,12.30
2023-04-23T03:06:36.885Z,12.30
2023-04-23T03:09:03.945Z,12.20
2023-04-23T03:11:31.627Z,12.30
2023-04-23T03:13:58.460Z,12.30
2023-04-23T03:16:26.875Z,12.30
2023-04-23T03:18:53.689Z,12.20
2023-04-23T03:21:20.543Z,12.20
2023-04-23T03:23:47.256Z,12.10
2023-04-23T03:26:13.962Z,12.00
2023-04-23T03:28:40.698Z,11.90
2023-04-23T03:31:07.530Z,11.90
2023-04-23T03:33:34.213Z,11.80
2023-04-23T03:36:01.196Z,11.80
2023-04-23T03:38:30.804Z,11.80
2023-04-23T03:40:58.669Z,11.80
2023-04-23T03:43:25.674Z,11.80
2023-04-23T03:46:12.391Z,11.80
2023-04-23T03:48:41.510Z,11.80
2023-04-23T03:51:17.797Z,11.80
2023-04-23T03:53:48.178Z,11.80
2023-04-23T03:56:33.529Z,11.70
2023-04-23T03:59:17.040Z,11.60
2023-04-23T04:01:45.181Z,11.60
2023-04-23T04:04:12.174Z,11.60
2023-04-23T04:06:39.135Z,11.70
2023-04-23T04:09:07.855Z,11.70
2023-04-23T04:11:34.984Z,11.80
2023-04-23T04:14:01.634Z,11.90
2023-04-23T04:16:28.410Z,12.00
2023-04-23T04:18:56.613Z,12.00
2023-04-23T04:21:23.464Z,11.90
2023-04-23T04:23:51.007Z,11.90
2023-04-23T04:26:18.664Z,12.00
2023-04-23T04:28:45.424Z,12.00
2023-04-23T04:31:14.369Z,11.90
2023-04-23T04:33:41.557Z,11.90
2023-04-23T04:36:10.955Z,11.90
2023-04-23T04:38:37.848Z,11.90
2023-04-23T04:41:05.052Z,11.80
2023-04-23T04:43:32.770Z,11.80
2023-04-23T04:45:59.508Z,11.80
2023-04-23T04:48:26.340Z,11.80
2023-04-23T04:50:53.384Z,11.80
2023-04-23T04:53:20.156Z,11.80
2023-04-23T04:55:46.852Z,11.70
2023-04-23T04:58:14.314Z,11.70
2023-04-23T05:00:41.060Z,11.70
2023-04-23T05:03:07.967Z,11.80
2023-04-23T05:05:34.864Z,12.00
2023-04-23T05:08:04.496Z,12.20
2023-04-23T05:10:31.259Z,12.30
2023-04-23T05:12:58.124Z,12.50
2023-04-23T05:15:24.820Z,12.60
2023-04-23T05:17:53.596Z,12.80
2023-04-23T05:20:21.289Z,13.00
2023-04-23T05:22:48.294Z,13.00
2023-04-23T05:25:15.094Z,13.00
2023-04-23T05:27:41.909Z,13.00
2023-04-23T05:30:10.251Z,13.00
2023-04-23T05:32:37.220Z,12.90
2023-04-23T05:35:04.830Z,12.90
2023-04-23T05:37:31.646Z,13.00
2023-04-23T05:39:58.459Z,13.10
2023-04-23T05:42:25.142Z,13.10
2023-04-23T05:44:51.926Z,13.10
2023-04-23T05:47:18.632Z,13.30
2023-04-23T05:49:45.582Z,13.30
2023-04-23T05:52:12.401Z,13.40
2023-04-23T05:54:39.453Z,13.50
2023-04-23T05:57:06.379Z,13.40
2023-04-23T05:59:34.042Z,13.20
2023-04-23T06:02:00.867Z,13.10
2023-04-23T06:04:27.914Z,13.00
2023-04-23T06:06:54.834Z,12.90
2023-04-23T06:09:21.781Z,13.00
2023-04-23T06:11:50.509Z,13.30
2023-04-23T06:14:17.224Z,13.30
2023-04-23T06:16:44.225Z,13.20
2023-04-23T06:19:11.421Z,13.20
2023-04-23T06:21:38.147Z,13.50
2023-04-23T06:24:07.309Z,13.40
2023-04-23T06:26:34.163Z,13.40
2023-04-23T06:29:08.678Z,13.20
2023-04-23T06:31:48.114Z,13.30
2023-04-23T06:34:14.954Z,13.50
2023-04-23T06:36:43.393Z,13.40
2023-04-23T06:39:10.448Z,13.40
2023-04-23T06:41:37.846Z,13.40
2023-04-23T06:44:21.525Z,13.30
2023-04-23T06:46:54.272Z,13.20
2023-04-23T06:49:21.048Z,13.40
2023-04-23T06:51:48.232Z,13.40
2023-04-23T06:54:14.845Z,13.40
2023-04-23T06:56:41.650Z,13.50
2023-04-23T06:59:08.315Z,13.50
2023-04-23T07:01:42.928Z,13.60
2023-04-23T07:04:09.651Z,13.50
2023-04-23T07:06:36.698Z,13.70
2023-04-23T07:09:03.740Z,13.40
2023-04-23T07:11:31.767Z,13.30
2023-04-23T07:13:58.603Z,13.20
2023-04-23T07:16:25.819Z,13.40
2023-04-23T07:18:52.492Z,13.50
2023-04-23T07:21:19.142Z,13.40
2023-04-23T07:23:45.888Z,13.50
2023-04-23T07:26:12.589Z,13.50
2023-04-23T07:28:39.245Z,13.30
2023-04-23T07:31:07.825Z,13.40
2023-04-23T07:33:34.504Z,13.50
2023-04-23T07:36:01.175Z,13.60
2023-04-23T07:38:27.867Z,13.50
2023-04-23T07:40:54.714Z,13.70
2023-04-23T07:43:21.445Z,13.90
2023-04-23T07:45:48.177Z,14.20
2023-04-23T07:48:14.936Z,14.20
2023-04-23T07:50:42.391Z,14.50
2023-04-23T07:53:09.036Z,14.40
2023-04-23T07:55:35.731Z,14.70
2023-04-23T07:58:02.346Z,14.30
2023-04-23T08:00:29.004Z,14.40
2023-04-23T08:02:55.685Z,14.90
2023-04-23T08:05:22.669Z,15.10
2023-04-23T08:07:49.419Z,15.30
2023-04-23T08:10:16.216Z,15.50
2023-04-23T08:12:42.900Z,15.50
2023-04-23T08:15:10.653Z,15.80
2023-04-23T08:17:41.065Z,15.40
2023-04-23T08:20:08.323Z,15.50
2023-04-23T08:22:35.040Z,15.60
2023-04-23T08:25:01.805Z,15.50
2023-04-23T08:27:28.630Z,16.20
2023-04-23T08:29:56.294Z,16.70
2023-04-23T08:32:23.117Z,17.00
2023-04-23T08:34:49.909Z,17.20
2023-04-23T08:37:29.475Z,17.40
2023-04-23T08:39:56.727Z,17.00
2023-04-23T08:42:52.761Z,16.90
2023-04-23T08:45:21.845Z,16.70
2023-04-23T08:47:48.552Z,16.60
2023-04-23T08:50:19.895Z,16.80
2023-04-23T08:52:52.833Z,16.40
2023-04-23T08:55:21.887Z,16.50
2023-04-23T08:57:49.841Z,16.60
2023-04-23T09:00:19.020Z,17.10
2023-04-23T09:02:47.629Z,17.60
2023-04-23T09:05:15.332Z,17.90
2023-04-23T09:07:42.609Z,17.70
2023-04-23T09:10:11.587Z,17.80
2023-04-23T09:12:41.253Z,17.70
2023-04-23T09:15:10.669Z,17.60
2023-04-23T09:17:43.054Z,17.30
2023-04-23T09:20:10.891Z,17.40
2023-04-23T09:22:46.002Z,17.70
2023-04-23T09:25:18.825Z,17.60
2023-04-23T09:27:46.719Z,17.70
2023-04-23T09:30:13.890Z,17.80
2023-04-23T09:32:42.456Z,18.10
2023-04-23T09:35:16.310Z,18.30
2023-04-23T09:37:48.375Z,18.60
2023-04-23T09:40:17.609Z,18.80
2023-04-23T09:42:55.600Z,18.80
2023-04-23T09:45:22.466Z,18.80
2023-04-23T09:47:54.161Z,19.10
2023-04-23T09:50:36.736Z,18.80
2023-04-23T09:53:04.217Z,18.90
2023-04-23T09:55:37.239Z,18.70
2023-04-23T09:58:07.636Z,18.00
2023-04-23T10:00:37.121Z,18.30
2023-04-23T10:03:05.037Z,18.10
2023-04-23T10:05:41.053Z,18.10
2023-04-23T10:08:17.338Z,17.90
2023-04-23T10:10:59.513Z,17.60
2023-04-23T10:13:29.830Z,17.60
2023-04-23T10:16:00.658Z,18.10
2023-04-23T10:18:34.166Z,18.40
2023-04-23T10:21:03.260Z,18.80
2023-04-23T10:23:33.163Z,19.00
2023-04-23T10:26:03.877Z,19.30
2023-04-23T10:28:32.884Z,19.30
2023-04-23T10:31:00.562Z,19.10
2023-04-23T10:33:37.468Z,18.50
2023-04-23T10:36:09.818Z,18.40
2023-04-23T10:38:42.946Z,18.40
2023-04-23T10:41:23.656Z,18.70
2023-04-23T10:43:50.309Z,18.90
2023-04-23T10:46:30.848Z,18.90
2023-04-23T10:49:16.405Z,19.00
2023-04-23T10:52:18.001Z,19.10
2023-04-23T10:54:34.115Z,19.30
2023-04-23T10:57:05.881Z,19.00
2023-04-23T10:59:40.666Z,19.40
2023-04-23T11:02:10.321Z,19.10
2023-04-23T11:04:44.660Z,19.20
2023-04-23T11:07:13.027Z,19.00
2023-04-23T11:09:46.527Z,19.30
2023-04-23T11:12:28.088Z,19.80
2023-04-23T11:14:55.766Z,19.60
2023-04-23T11:17:25.991Z,19.30
2023-04-23T11:20:19.137Z,19.00
2023-04-23T11:22:50.581Z,19.00
2023-04-23T11:25:21.365Z,19.00
2023-04-23T11:27:50.196Z,19.60
2023-04-23T11:30:25.617Z,19.80
2023-04-23T11:32:54.229Z,19.30
2023-04-23T11:35:23.004Z,18.90
2023-04-23T11:37:49.749Z,18.40
2023-04-23T11:40:19.487Z,18.20
2023-04-23T11:42:47.352Z,18.50
2023-04-23T11:45:22.542Z,18.40
2023-04-23T11:47:51.182Z,18.50
2023-04-23T11:50:25.750Z,18.40
2023-04-23T11:52:53.105Z,18.50
2023-04-23T11:55:20.659Z,18.80
2023-04-23T11:57:52.527Z,19.30
2023-04-23T12:00:25.022Z,19.60
2023-04-23T12:03:03.065Z,19.20
2023-04-23T12:05:41.190Z,19.10
2023-04-23T12:08:18.717Z,18.50
2023-04-23T12:10:59.050Z,18.40
2023-04-23T12:13:28.103Z,18.70
2023-04-23T12:16:03.537Z,19.30
2023-04-23T12:18:42.104Z,19.30
2023-04-23T12:21:10.973Z,19.00
2023-04-23T12:23:39.341Z,18.90
2023-04-23T12:26:15.136Z,19.00
2023-04-23T12:28:51.299Z,19.30
2023-04-23T12:31:22.993Z,19.40
2023-04-23T12:34:07.112Z,19.40
2023-04-23T12:36:37.201Z,19.50
2023-04-23T12:39:29.803Z,19.60
2023-04-23T12:42:02.822Z,19.90
2023-04-23T12:44:29.734Z,20.10
2023-04-23T12:47:04.824Z,20.10
2023-04-23T12:49:32.288Z,19.60
2023-04-23T12:52:01.437Z,19.40
2023-04-23T12:54:38.882Z,19.60
2023-04-23T12:57:07.586Z,20.00
2023-04-23T12:59:34.648Z,20.40
2023-04-23T13:02:02.151Z,20.50
2023-04-23T13:04:30.480Z,20.70
2023-04-23T13:06:57.220Z,20.70
2023-04-23T13:09:26.816Z,20.20
2023-04-23T13:11:54.320Z,19.90
2023-04-23T13:14:21.559Z,19.80
2023-04-23T13:16:48.886Z,19.70
2023-04-23T13:19:17.012Z,19.30
2023-04-23T13:21:44.543Z,19.00
2023-04-23T13:24:11.402Z,19.00
2023-04-23T13:26:38.385Z,19.00
2023-04-23T13:29:05.208Z,19.30
2023-04-23T13:31:32.186Z,19.50
2023-04-23T13:33:59.196Z,19.70
2023-04-23T13:36:26.038Z,19.80
2023-04-23T13:38:52.894Z,20.00
2023-04-23T13:41:19.621Z,20.30
2023-04-23T13:43:46.281Z,20.10
2023-04-23T13:46:14.230Z,19.50
2023-04-23T13:48:41.639Z,19.30
2023-04-23T13:51:20.756Z,19.20
2023-04-23T13:53:55.211Z,19.30
2023-04-23T13:56:21.940Z,19.10
2023-04-23T13:58:48.879Z,19.20
2023-04-23T14:01:15.746Z,19.50
2023-04-23T14:03:42.542Z,19.70
2023-04-23T14:06:09.298Z,19.60
2023-04-23T14:08:38.210Z,19.80
2023-04-23T14:11:05.280Z,19.90
2023-04-23T14:13:32.774Z,19.70
2023-04-23T14:16:02.044Z,19.60
2023-04-23T14:18:30.582Z,19.30
2023-04-23T14:20:57.309Z,18.70
2023-04-23T14:23:23.954Z,18.50
2023-04-23T14:25:58.931Z,18.30
2023-04-23T14:28:40.242Z,18.40
2023-04-23T14:31:07.429Z,18.50
2023-04-23T14:33:34.114Z,18.60
2023-04-23T14:36:00.838Z,18.50
2023-04-23T14:38:27.583Z,18.50
2023-04-23T14:40:55.028Z,18.40
2023-04-23T14:43:21.723Z,18.20
2023-04-23T14:45:48.531Z,18.30
2023-04-23T14:48:15.384Z,18.20
2023-04-23T14:50:42.178Z,18.60
2023-04-23T14:53:10.462Z,18.70
2023-04-23T14:55:38.678Z,18.80
2023-04-23T14:58:06.240Z,18.70
2023-04-23T15:00:33.804Z,18.50
2023-04-23T15:03:02.655Z,18.30
2023-04-23T15:05:29.459Z,17.90
2023-04-23T15:07:56.147Z,17.90
2023-04-23T15:10:23.439Z,17.30
2023-04-23T15:12:50.774Z,16.70
2023-04-23T15:15:36.940Z,16.10
2023-04-23T15:18:07.930Z,15.70
2023-04-23T15:20:34.697Z,15.50
2023-04-23T15:23:01.437Z,15.20
2023-04-23T15:25:29.503Z,14.80
2023-04-23T15:27:58.910Z,14.40
2023-04-23T15:30:26.294Z,14.60
2023-04-23T15:32:57.570Z,14.40
2023-04-23T15:35:25.616Z,14.50
2023-04-23T15:37:53.345Z,14.60
2023-04-23T15:40:20.399Z,14.50
2023-04-23T15:42:48.009Z,14.40
2023-04-23T15:45:14.784Z,14.40
2023-04-23T15:47:42.179Z,14.50
2023-04-23T15:50:11.330Z,14.50
2023-04-23T15:52:38.842Z,14.50
2023-04-23T15:55:06.438Z,14.50
2023-04-23T15:57:33.090Z,14.50
2023-04-23T15:59:59.835Z,14.30
2023-04-23T16:02:27.219Z,14.40
2023-04-23T16:04:54.022Z,14.40
2023-04-23T16:07:20.798Z,14.10
2023-04-23T16:09:47.558Z,14.20
2023-04-23T16:12:14.281Z,14.20
2023-04-23T16:14:42.588Z,14.10
2023-04-23T16:17:09.466Z,14.10
2023-04-23T16:19:36.228Z,14.10
2023-04-23T16:22:02.885Z,14.20
2023-04-23T16:24:29.817Z,14.20
2023-04-23T16:26:56.527Z,14.10
2023-04-23T16:29:23.329Z,14.00
2023-04-23T16:31:50.473Z,13.80
2023-04-23T16:34:17.308Z,13.60
2023-04-23T16:36:44.061Z,13.70
2023-04-23T16:39:11.295Z,13.70
2023-04-23T16:41:38.291Z,13.90
2023-04-23T16:44:05.320Z,13.70
2023-04-23T16:46:32.362Z,13.80
2023-04-23T16:48:59.662Z,14.00
2023-04-23T16:51:26.920Z,13.90
2023-04-23T16:53:54.012Z,14.00
2023-04-23T16:56:21.233Z,14.10
2023-04-23T16:58:47.985Z,14.10
2023-04-23T17:01:16.442Z,14.20
2023-04-23T17:03:46.520Z,14.40
2023-04-23T17:06:28.234Z,14.60
2023-04-23T17:08:57.688Z,14.50
2023-04-23T17:11:25.602Z,14.70
2023-04-23T17:13:52.287Z,14.90
2023-04-23T17:16:19.326Z,14.60
2023-04-23T17:18:46.248Z,14.60
2023-04-23T17:21:13.146Z,14.40
2023-04-23T17:23:40.049Z,14.60
2023-04-23T17:26:07.068Z,14.50
2023-04-23T17:28:33.731Z,14.50
2023-04-23T17:31:01.163Z,14.50
2023-04-23T17:33:28.103Z,14.60
2023-04-23T17:35:57.775Z,14.40
2023-04-23T17:38:24.981Z,14.50
2023-04-23T17:40:52.945Z,14.50
2023-04-23T17:43:20.292Z,14.40
2023-04-23T17:45:47.646Z,14.60
2023-04-23T17:48:15.303Z,14.50
2023-04-23T17:50:42.671Z,14.60
2023-04-23T17:53:10.192Z,14.30
2023-04-23T17:55:36.877Z,14.20
2023-04-23T17:58:05.667Z,14.10
2023-04-23T18:00:36.641Z,14.00
2023-04-23T18:03:04.012Z,14.20
2023-04-23T18:05:31.351Z,14.20
2023-04-23T18:07:58.264Z,14.10
2023-04-23T18:10:25.196Z,14.00
2023-04-23T18:12:52.108Z,13.90
2023-04-23T18:15:18.903Z,13.70
2023-04-23T18:17:47.257Z,13.90
2023-04-23T18:20:14.457Z,13.90
2023-04-23T18:22:41.497Z,13.90
2023-04-23T18:25:12.567Z,14.10
2023-04-23T18:27:39.839Z,13.80
2023-04-23T18:30:08.138Z,13.60
2023-04-23T18:32:46.927Z,13.70
2023-04-23T18:35:13.836Z,13.60
2023-04-23T18:38:09.894Z,13.50
2023-04-23T18:40:36.612Z,13.30
2023-04-23T18:43:03.275Z,13.30
2023-04-23T18:45:30.001Z,13.30
2023-04-23T18:47:59.276Z,13.30
2023-04-23T18:50:30.946Z,13.10
2023-04-23T18:52:57.576Z,13.10
2023-04-23T18:55:24.238Z,13.20
2023-04-23T18:57:50.914Z,13.10
2023-04-23T19:00:17.723Z,13.10
2023-04-23T19:02:44.540Z,13.10
2023-04-23T19:05:11.492Z,13.10
2023-04-23T19:07:40.411Z,13.10
2023-04-23T19:10:07.900Z,12.90
2023-04-23T19:12:34.609Z,12.90
2023-04-23T19:15:01.258Z,12.90
2023-04-23T19:17:27.977Z,13.00
2023-04-23T19:19:54.882Z,13.00
2023-04-23T19:22:24.921Z,13.00
2023-04-23T19:24:51.576Z,13.10
2023-04-23T19:27:18.295Z,13.00
2023-04-23T19:29:46.348Z,13.10
2023-04-23T19:32:13.012Z,13.00
2023-04-23T19:34:39.887Z,13.00
2023-04-23T19:37:06.672Z,13.00
2023-04-23T19:39:33.369Z,12.90
2023-04-23T19:42:02.494Z,12.80
2023-04-23T19:44:29.249Z,12.70
2023-04-23T19:46:56.426Z,12.60
2023-04-23T19:49:23.196Z,12.60
2023-04-23T19:51:52.988Z,12.60
2023-04-23T19:54:19.652Z,12.60
2023-04-23T19:56:46.528Z,12.60
2023-04-23T19:59:15.196Z,12.40
2023-04-23T20:01:41.849Z,12.30
2023-04-23T20:04:09.233Z,12.30
2023-04-23T20:06:36.482Z,12.20
2023-04-23T20:09:17.984Z,12.30
2023-04-23T20:11:47.943Z,12.30
2023-04-23T20:14:15.045Z,12.40
2023-04-23T20:16:41.808Z,12.50
2023-04-23T20:19:11.736Z,12.50
2023-04-23T20:21:39.235Z,12.30
2023-04-23T20:24:07.447Z,12.20
2023-04-23T20:26:35.492Z,12.20
2023-04-23T20:29:02.534Z,12.20
2023-04-23T20:31:29.409Z,12.30
2023-04-23T20:33:56.412Z,12.30
2023-04-23T20:36:28.626Z,12.20
2023-04-23T20:38:57.946Z,12.30
2023-04-23T20:41:29.248Z,12.30
2023-04-23T20:43:56.970Z,12.20
2023-04-23T20:46:24.157Z,12.10
2023-04-23T20:48:53.686Z,12.10
2023-04-23T20:51:21.422Z,12.10
2023-04-23T20:53:48.556Z,12.10
2023-04-23T20:56:15.640Z,12.10
2023-04-23T20:58:42.445Z,12.20
2023-04-23T21:01:11.381Z,12.20
2023-04-23T21:03:39.244Z,12.10
2023-04-23T21:06:08.006Z,12.10
2023-04-23T21:08:35.845Z,12.00
2023-04-23T21:11:02.878Z,12.00
2023-04-23T21:13:29.928Z,11.90
2023-04-23T21:15:56.669Z,11.90
2023-04-23T21:18:23.412Z,11.70
2023-04-23T21:20:50.446Z,11.60
2023-04-23T21:23:17.119Z,11.60
2023-04-23T21:25:43.956Z,11.60
2023-04-23T21:28:10.816Z,11.50
2023-04-23T21:30:51.666Z,11.50
2023-04-23T21:33:20.060Z,11.50
2023-04-23T21:35:47.337Z,11.50
2023-04-23T21:38:14.171Z,11.50
2023-04-23T21:40:40.908Z,11.30
2023-04-23T21:43:08.001Z,11.30
2023-04-23T21:45:35.010Z,11.30
2023-04-23T21:48:02.060Z,11.30
2023-04-23T21:50:30.755Z,11.30
2023-04-23T21:52:59.386Z,11.40
2023-04-23T21:55:27.542Z,11.30
2023-04-23T21:58:03.273Z,11.30
2023-04-23T22:00:33.325Z,11.30
2023-04-23T22:03:00.259Z,11.20
2023-04-23T22:05:28.397Z,11.30
2023-04-23T22:07:56.719Z,11.40
2023-04-23T22:10:23.582Z,11.50
2023-04-23T22:12:50.677Z,11.50
2023-04-23T22:15:18.744Z,11.50
2023-04-23T22:17:50.355Z,11.30
2023-04-23T22:20:18.983Z,11.20
2023-04-23T22:22:46.161Z,11.10
2023-04-23T22:25:13.146Z,11.20
2023-04-23T22:27:40.947Z,11.10
2023-04-23T22:30:09.279Z,11.10
2023-04-23T22:32:37.052Z,11.10
2023-04-23T22:35:04.507Z,11.10
2023-04-23T22:37:31.744Z,11.10
2023-04-23T22:39:58.549Z,11.30
2023-04-23T22:42:25.395Z,11.20
2023-04-23T22:44:52.154Z,11.30
2023-04-23T22:47:19.086Z,11.40
2023-04-23T22:49:45.842Z,11.20
2023-04-23T22:52:14.207Z,11.30
2023-04-23T22:54:41.648Z,11.40
2023-04-23T22:57:09.283Z,11.50
2023-04-23T22:59:36.138Z,11.40
2023-04-23T23:02:02.821Z,11.40
2023-04-23T23:04:29.508Z,11.60
2023-04-23T23:06:56.305Z,11.70
2023-04-23T23:09:23.198Z,11.60
2023-04-23T23:11:49.956Z,11.40
2023-04-23T23:14:16.797Z,11.40
2023-04-23T23:16:43.608Z,11.30
2023-04-23T23:19:12.256Z,11.20
2023-04-23T23:21:39.121Z,11.30
2023-04-23T23:24:05.988Z,11.20
2023-04-23T23:26:32.801Z,11.40
2023-04-23T23:28:59.437Z,11.30
2023-04-23T23:31:27.192Z,11.30
2023-04-23T23:33:54.187Z,11.30
2023-04-23T23:36:20.910Z,11.30
2023-04-23T23:38:47.569Z,11.20
2023-04-23T23:41:14.293Z,11.40
2023-04-23T23:43:41.010Z,11.40
2023-04-23T23:46:07.962Z,11.40
2023-04-23T23:48:35.061Z,11.50
2023-04-23T23:51:01.800Z,11.50
2023-04-23T23:53:28.482Z,11.50
2023-04-23T23:55:55.181Z,11.50
2023-04-23T23:58:21.844Z,11.40
